Time;durP1;ratioP1;P1;durP2;ratioP2;P2;SDS_P1;SDS_P2;PMS_P1;PMS_P2;Temp;Humidity;BMP_temperature;BMP_pressure;BME280_temperature;BME280_humidity;BME280_pressure;Samples;Min_cycle;Max_cycle;Signal;HPM_P1;HPM_P2
2021/03/26 00:01:45;;;;;;;16.25;8.93;;;;;;;1.67;73.45;100647.84;1659577;86;21854;-62
2021/03/26 00:04:18;;;;;;;14.23;8.95;;;;;;;1.66;73.42;100643.60;1652090;87;21838;-63
2021/03/26 00:06:51;;;;;;;14.83;8.98;;;;;;;1.63;73.33;100651.92;1636100;86;21356;-63
2021/03/26 00:09:32;;;;;;;14.55;8.60;;;;;;;1.59;73.41;100646.08;1637535;87;21324;-61
2021/03/26 00:12:13;;;;;;;19.23;9.40;;;;;;;1.56;73.48;100656.98;1653468;84;21707;-64
2021/03/26 00:14:47;;;;;;;16.80;10.00;;;;;;;1.51;73.44;100653.33;1652817;86;21661;-62
2021/03/26 00:17:20;;;;;;;15.83;10.15;;;;;;;1.49;73.50;100653.85;1652047;86;21358;-62
2021/03/26 00:19:53;;;;;;;18.07;10.82;;;;;;;1.48;73.58;100650.06;1625667;88;21856;-63
2021/03/26 00:22:26;;;;;;;15.17;8.90;;;;;;;1.46;73.63;100648.82;1654059;86;21301;-63
2021/03/26 00:25:00;;;;;;;19.00;9.38;;;;;;;1.44;73.67;100643.34;1652753;85;21282;-62
2021/03/26 00:27:33;;;;;;;12.23;7.37;;;;;;;1.41;73.71;100650.77;1639308;86;21189;-62
2021/03/26 00:30:08;;;;;;;22.73;11.53;;;;;;;1.38;73.73;100650.93;1626195;88;21203;-63
2021/03/26 00:32:41;;;;;;;23.67;12.73;;;;;;;1.34;73.78;100650.66;1626046;88;21350;-62
2021/03/26 00:35:16;;;;;;;23.32;13.28;;;;;;;1.31;73.82;100659.37;1628659;88;21798;-62
2021/03/26 00:37:50;;;;;;;19.92;11.05;;;;;;;1.29;73.83;100654.73;1628263;88;21303;-62
2021/03/26 00:40:23;;;;;;;22.10;10.57;;;;;;;1.27;73.91;100656.55;1629250;87;21791;-62
2021/03/26 00:42:56;;;;;;;18.62;10.72;;;;;;;1.25;73.98;100660.10;1627875;87;21311;-63
2021/03/26 00:45:35;;;;;;;18.45;10.15;;;;;;;1.23;74.02;100667.92;1629804;87;21314;-62
2021/03/26 00:48:09;;;;;;;16.23;9.15;;;;;;;1.23;74.08;100663.20;1629016;87;21303;-62
2021/03/26 00:50:46;;;;;;;15.32;9.00;;;;;;;1.22;74.10;100666.67;1627650;88;21164;-63
2021/03/26 00:53:34;;;;;;;15.30;9.33;;;;;;;1.20;74.13;100666.75;1627530;88;21350;-64
2021/03/26 00:56:09;;;;;;;12.95;8.60;;;;;;;1.20;74.17;100665.91;1628652;88;21294;-62
2021/03/26 00:58:43;;;;;;;14.40;9.08;;;;;;;1.17;74.15;100673.33;1629167;87;21818;-64
2021/03/26 01:01:16;;;;;;;16.32;8.83;;;;;;;1.15;74.16;100674.30;1629024;88;21363;-62
2021/03/26 01:03:49;;;;;;;;;;;;;;;1.13;74.20;100681.27;1631170;87;21188;-64
2021/03/26 01:06:23;;;;;;;18.00;9.10;;;;;;;1.09;74.25;100679.28;1628557;87;20245;-61
2021/03/26 01:08:58;;;;;;;18.75;9.13;;;;;;;1.06;74.35;100678.13;1628345;87;21339;-60
2021/03/26 01:11:35;;;;;;;16.62;9.13;;;;;;;1.05;74.36;100676.43;1627511;88;21196;-61
2021/03/26 01:14:14;;;;;;;15.45;9.05;;;;;;;1.04;74.39;100679.09;1630554;86;21299;-61
2021/03/26 01:16:48;;;;;;;16.15;9.15;;;;;;;1.01;74.36;100681.79;1629024;87;21275;-61
2021/03/26 01:19:24;;;;;;;15.05;9.15;;;;;;;0.99;74.37;100686.18;1628846;87;21931;-60
2021/03/26 01:21:58;;;;;;;16.48;9.00;;;;;;;0.95;74.40;100684.64;1628992;88;21862;-61
2021/03/26 01:24:32;;;;;;;14.78;9.00;;;;;;;0.93;74.51;100683.88;1628284;87;21311;-60
2021/03/26 01:27:07;;;;;;;14.85;8.50;;;;;;;0.92;74.53;100689.48;1629063;87;21283;-60
2021/03/26 01:29:46;;;;;;;14.95;8.85;;;;;;;0.92;74.62;100686.90;1628571;87;21302;-60
2021/03/26 01:32:19;;;;;;;13.63;7.93;;;;;;;0.92;74.67;100680.90;1629034;88;21269;-61
2021/03/26 01:34:54;;;;;;;16.77;8.60;;;;;;;0.95;74.68;100689.80;1628253;88;21341;-60
2021/03/26 01:37:27;;;;;;;;;;;;;;;0.94;74.66;100686.38;1631356;88;21760;-60
2021/03/26 01:40:00;;;;;;;12.33;7.80;;;;;;;0.94;74.63;100681.22;1601132;89;20242;-61
2021/03/26 01:42:34;;;;;;;12.05;6.75;;;;;;;0.93;74.66;100690.32;1629129;87;21219;-60
2021/03/26 01:45:14;;;;;;;14.30;8.30;;;;;;;0.93;74.61;100682.11;1637804;86;21307;-60
2021/03/26 01:47:48;;;;;;;13.10;8.20;;;;;;;0.91;74.45;100692.94;1627502;87;21846;-61
2021/03/26 01:50:25;;;;;;;14.38;8.90;;;;;;;0.88;74.43;100689.67;1628508;88;21813;-60
2021/03/26 01:53:00;;;;;;;13.20;8.00;;;;;;;0.87;74.30;100694.43;1628452;88;21161;-63
2021/03/26 01:55:40;;;;;;;14.13;7.40;;;;;;;0.83;74.27;100687.30;1628554;86;21338;-63
2021/03/26 01:58:16;;;;;;;13.62;8.10;;;;;;;0.80;74.33;100690.44;1638027;86;21342;-63
2021/03/26 02:00:53;;;;;;;12.40;7.60;;;;;;;0.78;74.29;100690.95;1623087;87;21262;-62
2021/03/26 02:03:44;;;;;;;13.62;8.05;;;;;;;0.77;74.21;100697.00;1628447;88;21291;-63
2021/03/26 02:06:23;;;;;;;13.90;7.85;;;;;;;0.69;74.02;100695.58;1627569;88;21188;-62
2021/03/26 02:09:18;;;;;;;11.65;7.67;;;;;;;0.60;74.02;100688.67;1628276;86;21208;-63
2021/03/26 02:12:08;;;;;;;12.78;7.80;;;;;;;0.53;74.12;100691.96;1640960;87;21184;-63
2021/03/26 02:14:46;;;;;;;15.05;8.05;;;;;;;0.49;74.27;100691.70;1627728;88;21865;-62
2021/03/26 02:17:23;;;;;;;13.50;8.05;;;;;;;0.47;74.33;100692.22;1628817;88;21168;-62
2021/03/26 02:20:21;;;;;;;11.90;7.35;;;;;;;0.44;74.38;100692.34;1628718;87;21295;-63
2021/03/26 02:22:57;;;;;;;13.75;8.10;;;;;;;0.41;74.48;100696.31;1628388;86;21707;-62
2021/03/26 02:25:30;;;;;;;12.95;8.53;;;;;;;0.40;74.54;100694.66;1628347;88;21350;-63
2021/03/26 02:28:05;;;;;;;13.62;8.70;;;;;;;0.40;74.58;100697.67;1629057;86;21323;-63
2021/03/26 02:30:47;;;;;;;13.98;8.83;;;;;;;0.39;74.54;100697.27;1629019;87;21239;-64
2021/03/26 02:33:21;;;;;;;15.28;7.60;;;;;;;0.37;74.47;100703.79;1630232;86;21687;-63
2021/03/26 02:36:20;;;;;;;14.05;8.85;;;;;;;0.35;74.42;100706.03;1628060;87;21334;-63
2021/03/26 02:38:59;;;;;;;13.43;8.00;;;;;;;0.33;74.42;100703.98;1629114;86;21292;-63
2021/03/26 02:41:43;;;;;;;14.23;7.95;;;;;;;0.31;74.37;100704.48;1627874;88;21252;-62
2021/03/26 02:44:43;;;;;;;14.47;7.83;;;;;;;0.29;74.36;100704.53;1627403;87;21185;-62
2021/03/26 02:47:39;;;;;;;11.88;7.90;;;;;;;0.29;74.34;100701.95;1628719;88;21679;-62
2021/03/26 02:50:52;;;;;;;13.88;8.33;;;;;;;0.26;74.25;100698.23;1627915;87;21294;-63
2021/03/26 02:53:38;;;;;;;13.43;8.70;;;;;;;0.25;74.30;100700.85;1628841;87;21168;-63
2021/03/26 02:56:43;;;;;;;13.58;8.05;;;;;;;0.26;74.38;100703.83;1643134;86;21870;-63
2021/03/26 02:59:23;;;;;;;14.03;8.28;;;;;;;0.24;74.24;100706.92;1627652;88;21901;-62
2021/03/26 03:01:58;;;;;;;14.43;8.55;;;;;;;0.22;74.30;100706.95;1628748;86;21886;-62
2021/03/26 03:04:40;;;;;;;13.53;8.18;;;;;;;0.21;74.32;100711.73;1628014;87;21819;-62
2021/03/26 03:07:21;;;;;;;12.85;8.28;;;;;;;0.23;74.32;100712.95;1643859;86;21269;-62
2021/03/26 03:10:12;;;;;;;17.48;8.30;;;;;;;0.24;74.22;100713.36;1627719;87;21200;-63
2021/03/26 03:12:46;;;;;;;12.03;7.87;;;;;;;0.24;74.18;100712.06;1626433;88;21778;-63
2021/03/26 03:15:25;;;;;;;15.75;9.68;;;;;;;0.23;74.09;100718.10;1627737;88;21168;-63
2021/03/26 03:18:07;;;;;;;15.13;8.65;;;;;;;0.23;74.02;100719.39;1629175;86;21328;-63
2021/03/26 03:21:00;;;;;;;15.98;8.38;;;;;;;0.22;73.93;100718.55;1640059;87;21279;-63
2021/03/26 03:23:49;;;;;;;14.90;7.65;;;;;;;0.24;73.78;100719.80;1629393;86;21728;-63
2021/03/26 03:26:53;;;;;;;15.30;9.20;;;;;;;0.24;73.63;100722.37;1626093;87;21810;-62
2021/03/26 03:29:45;;;;;;;14.10;8.73;;;;;;;0.25;73.54;100716.30;1639100;84;22221;-63
2021/03/26 03:32:42;;;;;;;18.12;9.80;;;;;;;0.29;73.46;100719.98;1626893;85;21342;-64
2021/03/26 03:35:26;;;;;;;17.32;9.58;;;;;;;0.37;73.37;100723.11;1651374;87;21322;-63
2021/03/26 03:38:31;;;;;;;15.88;9.40;;;;;;;0.45;73.37;100721.08;1652321;87;21584;-62
2021/03/26 03:41:28;;;;;;;20.65;9.38;;;;;;;0.54;73.27;100723.27;1654623;85;21334;-63
2021/03/26 03:44:15;;;;;;;19.92;9.83;;;;;;;0.67;73.16;100715.86;1649858;84;21180;-63
2021/03/26 03:46:56;;;;;;;18.00;9.63;;;;;;;0.86;72.99;100714.20;1646706;86;21240;-65
2021/03/26 03:50:00;;;;;;;15.08;9.23;;;;;;;1.22;72.79;100718.25;1649927;87;21361;-64
2021/03/26 03:52:47;;;;;;;15.72;9.38;;;;;;;1.69;72.14;100714.45;1652847;87;22134;-64
2021/03/26 03:55:34;;;;;;;14.93;9.58;;;;;;;2.33;71.28;100712.30;1653898;85;21869;-65
2021/03/26 03:58:21;;;;;;;15.75;9.05;;;;;;;3.09;70.22;100714.53;1652826;85;21523;-66
2021/03/26 04:01:31;;;;;;;14.53;9.85;;;;;;;3.79;68.63;100705.67;1651503;86;21279;-66
2021/03/26 04:04:16;;;;;;;14.43;9.28;;;;;;;4.37;67.04;100711.91;1654018;87;21854;-65
2021/03/26 04:07:08;;;;;;;16.93;10.40;;;;;;;5.07;65.14;100716.50;1654485;87;21731;-65
2021/03/26 04:09:52;;;;;;;15.05;9.33;;;;;;;5.81;63.43;100714.58;1654931;86;21342;-65
2021/03/26 04:12:29;;;;;;;;;;;;;;;6.60;61.08;100714.75;1660912;84;21830;-65
2021/03/26 04:15:20;;;;;;;15.65;10.15;;;;;;;7.27;59.13;100722.38;1654302;85;20377;-64
2021/03/26 04:18:10;;;;;;;14.65;9.63;;;;;;;7.86;57.00;100719.55;1656475;85;21263;-63
2021/03/26 04:21:08;;;;;;;13.03;9.20;;;;;;;8.46;55.02;100719.59;1655889;86;21203;-60
2021/03/26 04:24:03;;;;;;;12.00;8.90;;;;;;;9.06;53.18;100726.45;1654686;85;21205;-63
2021/03/26 04:26:45;;;;;;;11.48;9.10;;;;;;;9.63;51.45;100729.03;1653853;86;21216;-63
2021/03/26 04:30:16;;;;;;;12.80;9.50;;;;;;;10.06;49.64;100723.42;1654564;86;21220;-63
2021/03/26 04:32:52;;;;;;;12.20;8.65;;;;;;;10.28;48.40;100723.88;1654358;85;21299;-63
2021/03/26 04:35:26;;;;;;;13.72;9.03;;;;;;;9.98;47.86;100724.02;1655495;86;21277;-63
2021/03/26 04:38:14;;;;;;;13.28;9.43;;;;;;;9.63;47.61;100724.64;1655425;85;21788;-62
2021/03/26 04:40:52;;;;;;;13.13;9.58;;;;;;;9.19;47.68;100724.60;1655380;87;21303;-63
2021/03/26 04:43:46;;;;;;;12.88;9.28;;;;;;;8.89;48.08;100729.48;1655285;85;21826;-63
2021/03/26 04:46:46;;;;;;;14.60;10.23;;;;;;;8.74;48.33;100726.26;1654389;87;21195;-63
2021/03/26 04:49:25;;;;;;;12.05;9.43;;;;;;;8.66;48.48;100728.13;1653630;85;21279;-64
2021/03/26 04:52:16;;;;;;;14.33;10.23;;;;;;;8.71;48.14;100727.78;1655344;85;21683;-63
2021/03/26 04:55:09;;;;;;;12.00;8.45;;;;;;;9.04;47.92;100728.35;1655302;87;21327;-62
2021/03/26 04:58:05;;;;;;;13.55;9.38;;;;;;;9.56;47.19;100732.59;1654817;85;22017;-65
2021/03/26 05:00:50;;;;;;;10.80;8.73;;;;;;;10.11;46.42;100740.89;1653794;87;21275;-64
2021/03/26 05:03:29;;;;;;;12.85;8.78;;;;;;;10.42;45.00;100743.23;1653773;87;21165;-63
2021/03/26 05:06:21;;;;;;;12.30;8.55;;;;;;;10.52;44.42;100736.31;1654135;85;22151;-62
2021/03/26 05:09:08;;;;;;;12.58;9.25;;;;;;;10.55;44.15;100738.69;1650855;87;21236;-63
2021/03/26 05:11:48;;;;;;;12.80;9.40;;;;;;;10.76;43.77;100740.87;1651998;85;21251;-62
2021/03/26 05:14:39;;;;;;;12.15;9.10;;;;;;;11.09;43.01;100743.33;1654687;85;21287;-67
2021/03/26 05:17:49;;;;;;;13.38;10.15;;;;;;;11.52;41.62;100744.48;1680947;85;21173;-67
2021/03/26 05:20:50;;;;;;;13.05;9.43;;;;;;;11.76;41.12;100745.05;1680946;85;21276;-67
2021/03/26 05:23:38;;;;;;;12.35;9.05;;;;;;;12.05;40.17;100739.91;1659821;86;21324;-68
2021/03/26 05:26:29;;;;;;;12.50;9.03;;;;;;;12.26;39.46;100744.59;1666918;86;21752;-66
2021/03/26 05:29:08;;;;;;;12.65;9.23;;;;;;;12.67;38.72;100742.23;1665318;86;21317;-62
2021/03/26 05:31:54;;;;;;;12.13;8.80;;;;;;;13.20;38.17;100743.97;1669924;86;21222;-67
2021/03/26 05:35:14;;;;;;;14.15;11.25;;;;;;;13.74;37.18;100750.67;1666532;86;21300;-67
2021/03/26 05:38:14;;;;;;;13.68;8.65;;;;;;;14.14;35.94;100747.70;1667966;86;21335;-64
2021/03/26 05:41:36;;;;;;;13.03;10.00;;;;;;;14.61;35.22;100746.63;1644202;86;21480;-68
2021/03/26 05:44:52;;;;;;;13.30;9.48;;;;;;;15.03;34.17;100749.94;1659135;86;21609;-64
2021/03/26 05:47:43;;;;;;;13.32;10.53;;;;;;;15.33;34.06;100754.81;1668484;85;21831;-65
2021/03/26 05:50:51;;;;;;;12.35;9.65;;;;;;;15.38;33.53;100753.34;1669576;86;21848;-67
2021/03/26 05:57:47;;;;;;;15.15;11.00;;;;;;;15.23;33.53;100755.39;1637658;87;21154;-67
2021/03/26 06:04:37;;;;;;;15.70;9.93;;;;;;;15.88;32.97;100757.45;1637869;85;21229;-65
2021/03/26 06:07:48;;;;;;;11.73;9.25;;;;;;;16.18;32.44;100752.14;1638296;87;21327;-63
2021/03/26 06:10:37;;;;;;;14.60;10.75;;;;;;;16.36;32.15;100753.37;1614912;86;21557;-63
2021/03/26 06:21:52;;;;;;;8.95;7.20;;;;;;;17.09;30.48;100752.98;1646234;86;21457;-63
2021/03/26 06:25:17;;;;;;;10.98;8.58;;;;;;;17.65;29.92;100750.28;1660958;86;21234;-65
2021/03/26 06:32:40;;;;;;;7.85;6.90;;;;;;;18.38;28.62;100744.20;1664193;86;21161;-63
2021/03/26 06:36:02;;;;;;;10.32;7.35;;;;;;;18.71;27.25;100746.16;1663486;86;21559;-67
2021/03/26 06:39:02;;;;;;;12.93;8.58;;;;;;;19.05;26.88;100752.37;1635777;86;21236;-65
2021/03/26 06:41:58;;;;;;;12.55;7.50;;;;;;;19.14;26.51;100744.66;1664114;86;22003;-69
2021/03/26 06:44:52;;;;;;;9.73;7.28;;;;;;;19.47;26.36;100748.69;1632464;86;21947;-66
2021/03/26 06:48:01;;;;;;;10.43;6.05;;;;;;;20.18;25.73;100739.25;1637734;87;22221;-70
2021/03/26 06:51:04;;;;;;;7.50;5.67;;;;;;;20.66;24.21;100731.41;1638402;87;21339;-68
2021/03/26 06:53:57;;;;;;;31.17;22.42;;;;;;;21.14;23.81;100731.66;1599086;87;21260;-70
2021/03/26 07:00:48;;;;;;;22.55;18.62;;;;;;;22.20;23.09;100737.46;1637668;87;22007;-68
2021/03/26 07:03:53;;;;;;;9.13;7.22;;;;;;;23.08;21.87;100735.91;1633998;87;21611;-72
2021/03/26 07:07:06;;;;;;;5.92;4.90;;;;;;;24.06;20.92;100741.61;1637349;87;21232;-66
2021/03/26 07:10:18;;;;;;;7.62;6.55;;;;;;;24.06;20.92;100741.61;1637307;86;22042;-65
2021/03/26 07:13:12;;;;;;;14.10;10.88;;;;;;;24.44;20.23;100730.95;1638629;87;21575;-72
2021/03/26 07:16:23;;;;;;;6.42;5.42;;;;;;;24.42;20.20;100725.00;1637679;87;21359;-69
2021/03/26 07:19:32;;;;;;;4.35;3.75;;;;;;;24.58;19.37;100731.17;1644183;87;21261;-71
2021/03/26 07:22:28;;;;;;;6.95;3.95;;;;;;;24.93;19.02;100731.09;1602782;89;21196;-70
2021/03/26 07:25:25;;;;;;;4.67;3.95;;;;;;;25.29;18.48;100736.52;1620510;87;21310;-70
2021/03/26 07:28:56;;;;;;;4.80;4.30;;;;;;;25.26;17.81;100732.97;1652697;86;21256;-65
2021/03/26 07:36:11;;;;;;;15.40;12.15;;;;;;;25.31;17.90;100733.13;1645248;85;22037;-65
2021/03/26 07:39:09;;;;;;;7.60;6.15;;;;;;;25.14;16.93;100733.89;1623785;88;21499;-65
2021/03/26 07:42:17;;;;;;;5.47;4.03;;;;;;;24.73;16.93;100720.48;1646057;87;21603;-67
2021/03/26 07:45:31;;;;;;;6.15;2.85;;;;;;;24.64;16.88;100724.98;1576756;89;21231;-67
2021/03/26 07:48:07;;;;;;;;;;;;;;;24.62;16.67;100723.83;1580646;90;22043;-61
2021/03/26 07:51:00;;;;;;;4.22;2.50;;;;;;;24.93;16.86;100720.38;1604496;86;20702;-63
2021/03/26 07:53:47;;;;;;;3.62;2.72;;;;;;;25.17;16.86;100720.06;1636646;86;21208;-62
2021/03/26 07:56:56;;;;;;;4.05;2.77;;;;;;;25.15;16.97;100719.47;1661750;86;21232;-63
2021/03/26 08:04:01;;;;;;;6.20;2.40;;;;;;;25.30;16.64;100716.73;1628383;88;21302;-63
2021/03/26 08:06:49;;;;;;;3.98;3.02;;;;;;;25.29;15.87;100720.45;1619870;88;21249;-64
2021/03/26 08:13:43;;;;;;;6.08;3.10;;;;;;;25.14;16.52;100721.84;1624156;88;22065;-63
2021/03/26 08:16:45;;;;;;;3.30;2.70;;;;;;;25.11;16.50;100717.73;1644463;87;21379;-62
2021/03/26 08:19:47;;;;;;;3.80;2.95;;;;;;;25.15;15.87;100722.95;1594029;89;21528;-62
2021/03/26 08:22:47;;;;;;;4.28;2.90;;;;;;;25.05;16.61;100723.98;1620967;88;21204;-61
2021/03/26 08:25:31;;;;;;;5.62;4.10;;;;;;;25.24;16.61;100718.94;1614316;88;21197;-63
2021/03/26 08:28:26;;;;;;;5.67;3.27;;;;;;;25.40;16.67;100717.06;1620670;88;21277;-66
2021/03/26 08:31:29;;;;;;;5.70;3.60;;;;;;;25.40;15.98;100714.89;1620624;88;21267;-63
2021/03/26 08:34:15;;;;;;;5.45;4.33;;;;;;;25.51;16.25;100712.05;1619790;88;21237;-65
2021/03/26 08:37:02;;;;;;;11.00;8.88;;;;;;;25.53;15.86;100708.61;1620208;88;21224;-64
2021/03/26 08:43:51;;;;;;;5.40;3.33;;;;;;;25.27;16.21;100705.63;1600879;88;21196;-67
2021/03/26 08:46:43;;;;;;;5.45;2.85;;;;;;;25.30;16.46;100703.85;1650016;87;21995;-65
2021/03/26 08:49:26;;;;;;;2.62;2.17;;;;;;;25.23;16.14;100708.45;1649779;87;21246;-63
2021/03/26 08:56:39;;;;;;;4.35;3.30;;;;;;;24.86;15.62;100704.05;1650197;85;21658;-61
2021/03/26 08:59:37;;;;;;;4.30;2.80;;;;;;;24.61;15.96;100698.12;1649757;85;21556;-61
2021/03/26 09:02:53;;;;;;;2.92;2.40;;;;;;;24.21;16.58;100700.73;1649699;87;21280;-62
2021/03/26 09:06:05;;;;;;;5.20;2.75;;;;;;;23.69;16.13;100706.27;1650687;87;21240;-62
2021/03/26 09:09:33;;;;;;;5.55;3.83;;;;;;;23.19;17.24;100706.44;1649371;87;21740;-59
2021/03/26 09:12:40;;;;;;;5.62;2.85;;;;;;;23.18;17.28;100709.61;1649822;87;21205;-62
2021/03/26 09:15:20;;;;;;;3.72;2.25;;;;;;;23.23;17.41;100712.48;1650585;87;21582;-60
2021/03/26 09:22:08;;;;;;;5.40;2.90;;;;;;;22.77;17.42;100700.47;1627213;86;21253;-59
2021/03/26 09:25:33;;;;;;;5.00;4.22;;;;;;;22.67;18.10;100698.71;1624868;87;21585;-59
2021/03/26 09:28:33;;;;;;;5.05;4.40;;;;;;;22.67;18.10;100698.71;1623398;88;21223;-61
2021/03/26 09:31:20;;;;;;;3.60;2.80;;;;;;;22.52;18.26;100702.57;1623966;87;21192;-61
2021/03/26 09:34:18;;;;;;;16.57;2.58;;;;;;;22.53;18.32;100705.53;1623309;88;21323;-59
2021/03/26 09:37:13;;;;;;;4.30;2.35;;;;;;;22.47;17.75;100705.02;1624222;88;21334;-60
2021/03/26 09:39:47;;;;;;;;;;;;;;;22.00;17.44;100701.88;1626407;88;21326;-59
2021/03/26 09:42:34;;;;;;;4.90;2.70;;;;;;;21.28;18.48;100702.28;1624338;88;20280;-59
2021/03/26 09:45:30;;;;;;;3.27;2.70;;;;;;;20.87;18.31;100708.48;1625105;86;22151;-59
2021/03/26 09:48:45;;;;;;;3.12;2.62;;;;;;;20.34;19.14;100704.48;1623605;88;21331;-59
2021/03/26 09:51:46;;;;;;;5.12;2.60;;;;;;;19.68;20.02;100706.82;1623428;88;21597;-60
2021/03/26 09:58:43;;;;;;;8.48;5.15;;;;;;;18.78;20.64;100702.84;1623522;86;21517;-56
2021/03/26 10:01:25;;;;;;;8.18;3.83;;;;;;;18.11;21.64;100695.64;1624629;88;21334;-56
2021/03/26 10:04:12;;;;;;;6.87;2.55;;;;;;;17.98;22.61;100692.22;1625078;87;21308;-56
2021/03/26 10:07:14;;;;;;;3.62;2.55;;;;;;;17.93;23.36;100698.56;1623682;86;21350;-57
2021/03/26 10:12:26;;;;;;;39.45;21.30;;;;;;;17.55;23.51;100695.39;1623316;88;22075;-58
2021/03/26 10:15:03;;;;;;;22.25;12.90;;;;;;;17.12;23.64;100699.26;1624992;86;21350;-58
2021/03/26 10:18:07;;;;;;;63.45;35.78;;;;;;;16.70;24.34;100704.71;1624125;88;21346;-59
2021/03/26 10:20:57;;;;;;;5.15;3.20;;;;;;;16.32;24.19;100701.32;1623999;88;21180;-58
2021/03/26 10:23:41;;;;;;;4.67;2.22;;;;;;;15.91;24.83;100697.73;1637132;87;21237;-57
2021/03/26 10:30:38;;;;;;;8.33;4.90;;;;;;;15.40;25.54;100708.36;1637984;87;21181;-58
2021/03/26 10:33:15;;;;;;;3.27;2.20;;;;;;;15.07;26.54;100713.08;1638010;87;22179;-58
2021/03/26 10:36:04;;;;;;;8.00;3.80;;;;;;;14.90;26.72;100708.17;1638605;87;21348;-59
2021/03/26 10:38:52;;;;;;;4.55;2.92;;;;;;;14.75;26.57;100707.89;1632541;87;22137;-59
2021/03/26 10:41:52;;;;;;;98.00;51.80;;;;;;;14.59;26.33;100711.67;1632824;87;21334;-59
2021/03/26 10:44:45;;;;;;;20.35;12.73;;;;;;;14.43;26.63;100708.05;1646026;86;21189;-60
2021/03/26 10:47:34;;;;;;;17.42;9.63;;;;;;;14.24;26.22;100704.20;1646942;87;21432;-59
2021/03/26 10:50:28;;;;;;;33.88;18.77;;;;;;;14.05;26.34;100711.25;1645316;87;21194;-59
2021/03/26 10:53:10;;;;;;;10.28;5.28;;;;;;;13.86;26.92;100711.34;1646345;87;21725;-58
2021/03/26 10:55:51;;;;;;;20.15;7.70;;;;;;;13.64;26.78;100708.25;1646756;87;21374;-58
2021/03/26 10:58:47;;;;;;;13.38;2.95;;;;;;;13.54;26.91;100708.80;1646349;87;21217;-57
2021/03/26 11:05:40;;;;;;;5.55;3.20;;;;;;;13.48;27.40;100711.50;1681379;85;21167;-58
2021/03/26 11:08:40;;;;;;;21.68;10.13;;;;;;;13.39;27.01;100707.11;1680695;85;21331;-58
2021/03/26 11:11:30;;;;;;;42.83;17.02;;;;;;;13.29;29.18;100707.14;1679474;85;21212;-57
2021/03/26 11:14:29;;;;;;;7.17;3.30;;;;;;;13.18;29.31;100705.16;1680435;85;21639;-57
2021/03/26 11:21:15;;;;;;;14.05;6.12;;;;;;;13.07;30.42;100707.93;1680029;85;21985;-63
2021/03/26 11:24:01;;;;;;;9.58;4.65;;;;;;;12.98;30.29;100697.76;1659279;85;21379;-58
2021/03/26 11:26:42;;;;;;;6.50;3.17;;;;;;;12.95;30.91;100698.51;1652205;86;21338;-59
2021/03/26 11:29:23;;;;;;;12.13;8.00;;;;;;;12.90;31.26;100697.62;1651513;86;22155;-60
2021/03/26 11:36:25;;;;;;;4.47;2.50;;;;;;;12.80;30.63;100699.45;1652234;86;21986;-59
2021/03/26 11:39:09;;;;;;;5.15;3.15;;;;;;;12.69;31.45;100701.72;1651631;85;22226;-59
2021/03/26 11:42:05;;;;;;;4.50;2.40;;;;;;;12.65;32.02;100699.03;1651622;86;22134;-59
2021/03/26 11:44:45;;;;;;;6.85;2.83;;;;;;;12.64;31.84;100697.36;1647790;86;21386;-59
2021/03/26 11:47:35;;;;;;;4.37;2.75;;;;;;;12.63;31.57;100698.32;1652218;86;21326;-59
2021/03/26 11:50:24;;;;;;;7.05;2.62;;;;;;;12.62;31.37;100694.05;1651056;86;21244;-59
2021/03/26 11:53:21;;;;;;;6.40;3.40;;;;;;;12.61;29.52;100695.52;1652488;86;21315;-59
2021/03/26 11:56:14;;;;;;;4.50;2.65;;;;;;;12.54;28.48;100692.59;1652134;86;21323;-59
2021/03/26 11:59:17;;;;;;;5.87;2.50;;;;;;;12.53;28.42;100695.36;1652031;86;22026;-61
2021/03/26 12:06:14;;;;;;;6.42;4.47;;;;;;;12.37;27.64;100694.58;1652281;86;21522;-61
2021/03/26 12:09:16;;;;;;;7.65;2.25;;;;;;;12.21;29.45;100690.83;1650911;86;21330;-59
2021/03/26 12:16:23;;;;;;;3.95;1.82;;;;;;;12.24;30.98;100695.33;1652094;86;21514;-57
2021/03/26 12:23:27;;;;;;;2.42;2.00;;;;;;;12.32;30.67;100693.34;1652875;84;21161;-58
2021/03/26 12:26:08;;;;;;;4.72;2.47;;;;;;;12.19;30.92;100693.59;1657184;86;22024;-57
2021/03/26 12:28:55;;;;;;;10.03;3.05;;;;;;;12.11;30.69;100687.70;1657140;84;21215;-57
2021/03/26 12:31:51;;;;;;;9.08;2.95;;;;;;;12.06;30.86;100695.66;1646149;86;21248;-58
2021/03/26 12:34:51;;;;;;;5.65;2.20;;;;;;;12.02;31.48;100696.87;1615496;86;21197;-58
2021/03/26 12:37:52;;;;;;;6.62;3.52;;;;;;;12.02;32.33;100696.39;1657231;86;21371;-59
2021/03/26 12:40:36;;;;;;;8.35;4.47;;;;;;;12.05;33.46;100691.36;1656639;85;21339;-57
2021/03/26 12:43:22;;;;;;;10.93;4.30;;;;;;;12.04;33.29;100691.84;1658031;86;21498;-57
2021/03/26 12:46:14;;;;;;;9.95;5.83;;;;;;;12.05;33.58;100701.86;1656230;86;21231;-58
2021/03/26 12:49:05;;;;;;;7.25;3.70;;;;;;;12.00;33.61;100697.02;1657200;86;21220;-58
2021/03/26 12:51:54;;;;;;;21.80;13.15;;;;;;;11.99;33.74;100695.81;1656577;86;22051;-57
2021/03/26 12:54:57;;;;;;;7.12;3.75;;;;;;;11.93;33.99;100695.89;1657103;86;22059;-59
2021/03/26 12:57:35;;;;;;;6.28;3.98;;;;;;;11.89;34.08;100689.73;1657381;86;21436;-58
2021/03/26 13:00:14;;;;;;;7.22;5.25;;;;;;;11.88;34.40;100698.56;1642502;85;21193;-56
2021/03/26 13:03:38;;;;;;;4.12;2.60;;;;;;;11.88;34.59;100697.25;1656237;86;21284;-57
2021/03/26 13:06:27;;;;;;;3.98;2.22;;;;;;;11.86;34.03;100693.94;1654956;86;21227;-58
2021/03/26 13:09:22;;;;;;;4.87;2.47;;;;;;;11.82;34.44;100689.92;1655295;86;21283;-58
2021/03/26 13:12:13;;;;;;;4.28;2.25;;;;;;;11.83;34.38;100688.94;1656497;86;22155;-61
2021/03/26 13:15:22;;;;;;;6.37;2.60;;;;;;;11.83;34.71;100691.56;1657371;86;21540;-59
2021/03/26 13:18:10;;;;;;;3.33;2.17;;;;;;;11.80;34.61;100694.45;1658184;86;21330;-58
2021/03/26 13:21:03;;;;;;;5.15;2.60;;;;;;;11.78;34.16;100694.59;1656617;84;22191;-57
2021/03/26 13:23:37;;;;;;;5.33;2.77;;;;;;;11.78;33.92;100691.97;1657627;86;21323;-57
2021/03/26 13:26:13;;;;;;;5.17;2.15;;;;;;;11.75;33.88;100690.11;1656104;84;22304;-57
2021/03/26 13:29:03;;;;;;;4.10;2.30;;;;;;;11.76;33.63;100697.00;1636536;86;21206;-58
2021/03/26 13:31:40;;;;;;;5.78;3.22;;;;;;;11.79;32.53;100696.74;1655700;84;21256;-57
2021/03/26 13:34:33;;;;;;;4.50;3.40;;;;;;;11.77;32.97;100690.80;1657363;86;22188;-57
2021/03/26 13:37:19;;;;;;;5.30;2.80;;;;;;;11.73;33.33;100694.16;1657345;86;21323;-60
2021/03/26 13:40:06;;;;;;;4.42;2.70;;;;;;;11.70;32.95;100695.73;1657245;86;21188;-57
2021/03/26 13:42:53;;;;;;;3.92;2.37;;;;;;;11.67;33.22;100697.29;1654001;86;21407;-58
2021/03/26 13:45:27;;;;;;;3.80;2.75;;;;;;;11.65;33.20;100689.20;1657544;86;21267;-59
2021/03/26 13:48:14;;;;;;;5.17;3.08;;;;;;;11.62;33.47;100690.77;1657598;86;21404;-57
2021/03/26 13:51:10;;;;;;;5.20;3.08;;;;;;;11.59;33.93;100694.48;1656989;84;21274;-57
2021/03/26 13:53:55;;;;;;;4.10;1.92;;;;;;;11.59;34.27;100698.42;1656352;86;22045;-58
2021/03/26 13:56:34;;;;;;;4.92;2.20;;;;;;;11.58;34.66;100696.78;1654654;84;21373;-60
2021/03/26 14:03:52;;;;;;;4.80;2.20;;;;;;;11.55;33.73;100706.21;1656670;86;21922;-59
2021/03/26 14:06:47;;;;;;;6.35;2.42;;;;;;;11.45;34.13;100709.27;1656743;86;21219;-60
2021/03/26 14:09:55;;;;;;;3.95;2.45;;;;;;;11.40;34.66;100704.41;1657247;86;21235;-60
2021/03/26 14:12:39;;;;;;;3.00;2.20;;;;;;;11.37;34.51;100704.66;1656110;86;21478;-59
2021/03/26 14:15:20;;;;;;;6.03;2.65;;;;;;;11.31;34.95;100709.13;1657401;86;21208;-58
2021/03/26 14:18:08;;;;;;;4.20;2.40;;;;;;;11.28;35.10;100706.77;1657162;86;21989;-59
2021/03/26 14:20:48;;;;;;;6.35;2.47;;;;;;;11.24;35.43;100706.67;1655797;86;21260;-59
2021/03/26 14:27:52;;;;;;;7.87;4.53;;;;;;;11.13;36.17;100709.85;1657289;85;21395;-60
2021/03/26 14:30:33;;;;;;;15.48;7.78;;;;;;;11.08;36.45;100714.14;1661210;86;21223;-59
2021/03/26 14:33:39;;;;;;;15.63;8.40;;;;;;;11.05;36.35;100720.12;1660631;86;21469;-60
2021/03/26 14:36:30;;;;;;;14.45;9.08;;;;;;;11.01;36.20;100717.42;1644407;86;21243;-60
2021/03/26 14:39:08;;;;;;;6.58;3.77;;;;;;;10.92;36.25;100715.55;1660929;86;22028;-60
2021/03/26 14:41:43;;;;;;;6.97;3.37;;;;;;;10.86;36.42;100724.76;1660762;84;21275;-60